Huntley, IL (60142)

2:22 PM CDT on April 18, 2015 (GMT -0500)
Sunrise at Meadowbrook | | Change Station
CLOSE
Current Station
Personal Weather Station
Location: Lake In The Hills, IL
Elevation: 863 ft
Nearby Weather Stations

Elev 863 ft 42.20 °N, 88.40 °W | Updated 14 minutes ago

Partly Cloudy
Partly Cloudy
69.8 °F
Feels Like 69.8 °F
N
5.3
Wind Variable Wind from WSW

Today
High -- | Low -- °F
--% Chance of Precip.
Yesterday
High -- | Low -- °F
Precip. -- in
6:08 AM 7:38 PM
New Moon, 0% visible
Pressure 30.05 in
Visibility 10.0 miles
Clouds Clear
Dew Point 39 °F
Humidity 33%
Rainfall 0.00 in
Snow Depth Not available.
UV 9 out of 12
Pollen 10.10 out of 12
Air Quality Not available.
Flu Activity Regional
METAR KDPA 181852Z 08012KT 10SM CLR 18/05 A3005 RMK AO2 SLP175 T01830050

More Conditions Fewer Conditions

Pressure 30.05 in
Visibility 10.0 miles
Clouds Clear
Dew Point 39 °F
Humidity 33%
Rainfall 0.00 in
Snow Depth Not available.
UV 9 out of 12
Pollen 10.10 out of 12
Air Quality Not available.
Flu Activity Regional
METAR KDPA 181852Z 08012KT 10SM CLR 18/05 A3005 RMK AO2 SLP175 T01830050

More Conditions Fewer Conditions

10-Day Weather Forecast

Almanac

Astronomy

Apr. 18, 2015 Rise Set
Actual Time
Civil Twilight
Nautical Twilight
Astronomical Twilight
Moon
Length of Visible Light
Length of Day
Tomorrow will be .
, % of the Moon is Illuminated

Today's Extremes

State Highs State Lows

Community

WunderPhotos

Upload Photos

1,814,501 photos uploaded!

WunderBlogs® & News

Nearby

Air Quality

  Air Quality AQ Index Pollutant
Not available.

Snow Depth

Station Depth Elevation

Earthquake Activity

City Distance Mag. Time & Date
Minimum magnitude displayed is 2.5.

Coastal Water Temperatures

Place Temperature

Stations

Nearby Weather Stations

Station Location Temp. Windchill Dew Point Humidity Wind Precip. Elev Updated Type